Flight Track Log - Related Links

Times and Time Zones

All times are in EDT time to prevent confusion due to time zone crossing. See the UCA4793 flight status page for this flight to view local times or setup timezone preferences in your user account.

Time Position Orientation Groundspeed Altitude Reporting Facility
EDT Latitude Longitude Course Direction KTS MPH feet Rate Location/Type
Fri 02:08:13 PM 43.1078 -76.1261 267° West 127 146 1,000  Level Boston Center
Fri 02:09:19 PM 43.1058 -76.1858 267° West 147 169 2,500 1,370 Climbing Boston Center
Fri 02:10:20 PM 43.1058 -76.2514 270° West 172 198 3,900 1,392 Climbing Boston Center
Fri 02:12:33 PM 43.1633 -76.3789 302° West 174 200 7,000 1,430 Climbing Cleveland Center
Fri 02:13:33 PM 43.1864 -76.4400 297° West 180 207 8,500 1,400 Climbing Cleveland Center
Fri 02:14:33 PM 43.2117 -76.5039 299° West 180 207 9,800 1,300 Climbing Cleveland Center
Fri 02:15:33 PM 43.2200 -76.5689 280° West 179 206 11,100 1,350 Climbing Cleveland Center
Fri 02:16:33 PM 43.2350 -76.6392 286° West 179 206 12,500 1,300 Climbing Cleveland Center
Fri 02:17:33 PM 43.2456 -76.7039 283° West 185 213 13,700 1,300 Climbing Cleveland Center
Fri 02:18:33 PM 43.2564 -76.7747 282° West 185 213 15,100 1,150 Climbing Cleveland Center
Fri 02:19:33 PM 43.2689 -76.8453 284° West 185 213 16,000 450 Climbing Cleveland Center
Fri 02:20:33 PM 43.2800 -76.9272 281° West 198 228 16,000  Level Cleveland Center
Fri 02:21:33 PM 43.2953 -77.0175 283° West 222 255 16,000  Level Cleveland Center
Fri 02:22:33 PM 43.3061 -77.0969 281° West 236 272 16,000  Level Cleveland Center
Fri 02:23:33 PM 43.2814 -77.1811 248° West 228 262 16,000  Level Cleveland Center
Fri 02:24:33 PM 43.2397 -77.2575 233° Southwest 234 269 16,000  Level Cleveland Center
Fri 02:25:33 PM 43.2003 -77.3306 233° Southwest 251 289 16,000  Level Cleveland Center
Fri 02:26:33 PM 43.1567 -77.4100 233° Southwest 256 295 16,000  Level Cleveland Center
Fri 02:27:33 PM 43.1150 -77.4858 233° Southwest 256 295 16,000  Level Cleveland Center
Fri 02:28:33 PM 43.0731 -77.5619 233° Southwest 256 295 16,000  Level Cleveland Center
Fri 02:29:33 PM 43.0292 -77.6381 232° Southwest 256 295 16,000  Level Cleveland Center
Fri 02:30:33 PM 42.9875 -77.7136 233° Southwest 256 295 16,000  Level Cleveland Center
Fri 02:31:33 PM 42.9456 -77.7894 233° Southwest 256 295 16,000  Level Cleveland Center
Fri 02:32:33 PM 42.9036 -77.8678 234° Southwest 256 295 16,000  Level Cleveland Center
Fri 02:33:33 PM 42.8614 -77.9433 233° Southwest 256 295 16,000  Level Cleveland Center
Fri 02:34:33 PM 42.8172 -78.0186 231° Southwest 256 295 16,000  Level Cleveland Center
Fri 02:35:33 PM 42.7753 -78.0942 233° Southwest 256 295 16,000  Level Cleveland Center
Fri 02:36:33 PM 42.7331 -78.1692 233° Southwest 256 295 16,000  Level Cleveland Center
Fri 02:37:33 PM 42.6908 -78.2442 233° Southwest 256 295 16,000  Level Cleveland Center
Fri 02:38:33 PM 42.6486 -78.3219 234° Southwest 256 295 16,000  Level Cleveland Center
Fri 02:39:33 PM 42.6042 -78.3969 231° Southwest 256 295 16,000  Level Cleveland Center
Fri 02:40:33 PM 42.5617 -78.4717 232° Southwest 256 295 16,000  Level Cleveland Center
Fri 02:41:33 PM 42.5172 -78.5494 232° Southwest 256 295 16,000  Level Cleveland Center
Fri 02:42:33 PM 42.4769 -78.6239 234° Southwest 256 295 16,000  Level Cleveland Center
Fri 02:43:33 PM 42.4344 -78.6983 232° Southwest 256 295 16,000  Level Cleveland Center
Fri 02:44:33 PM 42.3897 -78.7728 231° Southwest 256 295 16,000  Level Cleveland Center
Fri 02:45:33 PM 42.3492 -78.8469 234° Southwest 256 295 16,000  Level Cleveland Center
Fri 02:46:33 PM 42.2983 -78.9269 229° Southwest 256 295 16,000  Level Cleveland Center
Fri 02:47:33 PM 42.2556 -79.0039 233° Southwest 256 295 16,000  Level Cleveland Center
Fri 02:48:33 PM 42.2128 -79.0778 232° Southwest 256 295 16,000  Level Cleveland Center
Fri 02:49:33 PM 42.1719 -79.1517 233° Southwest 256 295 16,000  Level Cleveland Center
Fri 02:50:33 PM 42.1394 -79.2250 239° Southwest 256 295 16,000  Level Cleveland Center
Fri 02:51:33 PM 42.1031 -79.3042 238° Southwest 251 289 16,000  Level Cleveland Center
Fri 02:52:33 PM 42.0664 -79.3806 237° Southwest 256 295 16,000  Level Cleveland Center
Fri 02:53:33 PM 42.0317 -79.4622 240° Southwest 256 295 16,000  Level Cleveland Center
Fri 02:54:33 PM 41.9928 -79.5411 236° Southwest 256 295 16,000  Level Cleveland Center
Fri 02:55:33 PM 41.9558 -79.6200 238° Southwest 256 295 16,000  Level Cleveland Center
Fri 02:56:33 PM 41.9128 -79.7069 236° Southwest 261 300 16,000  Level Cleveland Center
Fri 02:57:33 PM 41.8781 -79.7856 239° Southwest 255 293 16,000  Level Cleveland Center
Fri 02:58:33 PM 41.8411 -79.8642 238° Southwest 255 293 16,000  Level Cleveland Center
Fri 02:59:33 PM 41.8039 -79.9369 236° Southwest 261 300 16,000  Level Cleveland Center
Fri 03:00:33 PM 41.7689 -80.0097 237° Southwest 255 293 16,000  Level Cleveland Center
Fri 03:01:33 PM 41.7358 -80.0906 241° Southwest 255 293 16,000  Level Cleveland Center
Fri 03:02:33 PM 41.7153 -80.1797 253° West 250 288 16,000 -100 Level Cleveland Center
Fri 03:03:33 PM 41.6989 -80.2661 256° West 250 288 15,800 -500 Descending Cleveland Center
Fri 03:04:33 PM 41.6806 -80.3636 256° West 256 295 15,000 -800 Descending Cleveland Center
Fri 03:05:33 PM 41.6597 -80.4581 254° West 266 306 14,200 -850 Descending Cleveland Center
Fri 03:06:33 PM 41.6411 -80.5664 257° West 266 306 13,300 -900 Descending Cleveland Center
Fri 03:07:33 PM 41.6203 -80.6581 253° West 261 300 12,400 -900 Descending Cleveland Center
Fri 03:08:33 PM 41.6014 -80.7553 255° West 261 300 11,500 -900 Descending Cleveland Center
Fri 03:09:33 PM 41.5803 -80.8469 253° West 261 300 10,600 -923 Descending Cleveland Center
Fri 03:10:30 PM 41.5633 -80.9356 256° West 262 302 9,700 -857 Descending Cleveland Center
Fri 03:11:25 PM 41.5464 -81.0242 256° West 262 302 9,000 -362 Descending Cleveland Center
Fri 03:12:26 PM 41.5356 -81.1131 261° West 237 273 9,000  Level Cleveland Center
Fri 03:13:21 PM 41.5289 -81.1961 264° West 241 277 9,000 -470 Level Cleveland Center
Fri 03:14:21 PM 41.5222 -81.2875 264° West 248 285 8,100 -893 Descending Cleveland Center
Fri 03:15:22 PM 41.5194 -81.3819 268° West 259 298 7,200 -885 Descending Cleveland Center
Fri 03:16:23 PM 41.5186 -81.4733 269° West 249 287 6,300 -689 Descending Cleveland Center
Fri 03:17:24 PM 41.5203 -81.5539 272° West 191 220 5,800 -689 Descending Cleveland Center
Fri 03:18:25 PM 41.5236 -81.6314 273° West 205 236 4,900 -885 Descending Cleveland Center
Fri 03:19:26 PM 41.5189 -81.6953 264° West 171 197 4,000 -934 Descending Cleveland Center
Fri 03:20:27 PM 41.4831 -81.7444 226° Southwest 190 219 3,000 -942 Descending Cleveland Center
Fri 03:21:27 PM 41.4492 -81.7908 226° Southwest 173 199 2,100 -893 Descending Cleveland Center
Fri 03:22:28 PM 41.4278 -81.8294 234° Southwest 126 145 1,200 -885 Descending Cleveland Center
Fri 03:24:00 PM 41.4000 -81.8500 252° West  Level FlightAware Approximate
Fri 03:31:00 PM 41.4094 -81.8547 252° West  Level Estimated

Login

Don't have an account? Register now (free) for customized features, flight alerts, and more!